sensor_id;sensor_type;location;lat;lon;timestamp;P1;durP1;ratioP1;P2;durP2;ratioP2
51792;SDS011;37850;53.178;6.376;2023-03-31T00:01:33;32.20;;;5.30;;
51792;SDS011;37850;53.178;6.376;2023-03-31T00:04:00;35.92;;;4.97;;
51792;SDS011;37850;53.178;6.376;2023-03-31T00:06:27;37.83;;;5.60;;
51792;SDS011;37850;53.178;6.376;2023-03-31T00:08:53;33.90;;;4.90;;
51792;SDS011;37850;53.178;6.376;2023-03-31T00:11:20;31.23;;;4.97;;
51792;SDS011;37850;53.178;6.376;2023-03-31T00:13:46;29.60;;;4.93;;
51792;SDS011;37850;53.178;6.376;2023-03-31T00:16:12;29.35;;;4.57;;
51792;SDS011;37850;53.178;6.376;2023-03-31T00:18:39;29.58;;;5.97;;
51792;SDS011;37850;53.178;6.376;2023-03-31T00:21:15;30.67;;;5.10;;
51792;SDS011;37850;53.178;6.376;2023-03-31T00:23:52;27.65;;;4.78;;
51792;SDS011;37850;53.178;6.376;2023-03-31T00:26:19;25.88;;;4.90;;
51792;SDS011;37850;53.178;6.376;2023-03-31T00:28:46;33.28;;;5.30;;
51792;SDS011;37850;53.178;6.376;2023-03-31T00:31:12;31.42;;;5.00;;
51792;SDS011;37850;53.178;6.376;2023-03-31T00:33:38;34.72;;;5.18;;
51792;SDS011;37850;53.178;6.376;2023-03-31T00:36:04;38.20;;;5.07;;
51792;SDS011;37850;53.178;6.376;2023-03-31T00:38:34;36.33;;;5.22;;
51792;SDS011;37850;53.178;6.376;2023-03-31T00:41:00;41.70;;;5.82;;
51792;SDS011;37850;53.178;6.376;2023-03-31T00:46:11;34.38;;;6.00;;
51792;SDS011;37850;53.178;6.376;2023-03-31T00:48:44;28.83;;;4.90;;
51792;SDS011;37850;53.178;6.376;2023-03-31T00:51:13;31.88;;;4.95;;
51792;SDS011;37850;53.178;6.376;2023-03-31T00:53:40;28.60;;;4.18;;
51792;SDS011;37850;53.178;6.376;2023-03-31T00:56:08;25.85;;;4.70;;
51792;SDS011;37850;53.178;6.376;2023-03-31T00:58:38;29.75;;;4.90;;
51792;SDS011;37850;53.178;6.376;2023-03-31T01:01:08;28.85;;;5.65;;
51792;SDS011;37850;53.178;6.376;2023-03-31T01:03:40;30.13;;;4.43;;
51792;SDS011;37850;53.178;6.376;2023-03-31T01:06:06;35.75;;;5.00;;
51792;SDS011;37850;53.178;6.376;2023-03-31T01:08:34;29.30;;;4.95;;
51792;SDS011;37850;53.178;6.376;2023-03-31T01:11:06;28.13;;;4.60;;
51792;SDS011;37850;53.178;6.376;2023-03-31T01:13:36;35.05;;;4.82;;
51792;SDS011;37850;53.178;6.376;2023-03-31T01:16:05;24.83;;;5.10;;
51792;SDS011;37850;53.178;6.376;2023-03-31T01:18:31;30.25;;;4.82;;
51792;SDS011;37850;53.178;6.376;2023-03-31T01:43:27;30.15;;;4.18;;
51792;SDS011;37850;53.178;6.376;2023-03-31T01:46:09;24.23;;;5.13;;
51792;SDS011;37850;53.178;6.376;2023-03-31T01:54:30;20.80;;;3.63;;
51792;SDS011;37850;53.178;6.376;2023-03-31T01:57:14;25.38;;;4.40;;
51792;SDS011;37850;53.178;6.376;2023-03-31T02:02:36;26.98;;;4.43;;
51792;SDS011;37850;53.178;6.376;2023-03-31T02:05:23;27.45;;;4.10;;
51792;SDS011;37850;53.178;6.376;2023-03-31T02:07:54;28.70;;;4.40;;
51792;SDS011;37850;53.178;6.376;2023-03-31T02:10:45;31.35;;;5.65;;
51792;SDS011;37850;53.178;6.376;2023-03-31T02:13:12;27.60;;;3.85;;
51792;SDS011;37850;53.178;6.376;2023-03-31T02:15:41;34.42;;;4.82;;
51792;SDS011;37850;53.178;6.376;2023-03-31T02:18:12;28.95;;;4.72;;
51792;SDS011;37850;53.178;6.376;2023-03-31T02:20:43;25.83;;;3.90;;
51792;SDS011;37850;53.178;6.376;2023-03-31T02:23:14;28.63;;;4.07;;
51792;SDS011;37850;53.178;6.376;2023-03-31T02:25:53;23.40;;;4.00;;
51792;SDS011;37850;53.178;6.376;2023-03-31T02:28:27;26.10;;;4.45;;
51792;SDS011;37850;53.178;6.376;2023-03-31T02:33:32;20.10;;;3.85;;
51792;SDS011;37850;53.178;6.376;2023-03-31T02:35:58;23.95;;;4.13;;
51792;SDS011;37850;53.178;6.376;2023-03-31T02:38:25;31.35;;;5.00;;
51792;SDS011;37850;53.178;6.376;2023-03-31T02:40:51;25.15;;;4.13;;
51792;SDS011;37850;53.178;6.376;2023-03-31T02:43:17;20.15;;;3.92;;
51792;SDS011;37850;53.178;6.376;2023-03-31T02:45:46;19.73;;;3.70;;
51792;SDS011;37850;53.178;6.376;2023-03-31T02:50:53;23.98;;;3.63;;
51792;SDS011;37850;53.178;6.376;2023-03-31T03:01:36;21.35;;;3.78;;
51792;SDS011;37850;53.178;6.376;2023-03-31T03:10:51;25.17;;;4.10;;
51792;SDS011;37850;53.178;6.376;2023-03-31T03:13:17;25.02;;;4.20;;
51792;SDS011;37850;53.178;6.376;2023-03-31T03:15:46;21.67;;;4.53;;
51792;SDS011;37850;53.178;6.376;2023-03-31T03:18:17;25.08;;;4.50;;
51792;SDS011;37850;53.178;6.376;2023-03-31T03:20:43;23.55;;;3.25;;
51792;SDS011;37850;53.178;6.376;2023-03-31T03:23:13;24.40;;;3.88;;
51792;SDS011;37850;53.178;6.376;2023-03-31T03:25:40;21.88;;;3.28;;
51792;SDS011;37850;53.178;6.376;2023-03-31T03:28:06;20.83;;;3.13;;
51792;SDS011;37850;53.178;6.376;2023-03-31T03:30:31;22.48;;;3.63;;
51792;SDS011;37850;53.178;6.376;2023-03-31T03:32:57;20.90;;;3.75;;
51792;SDS011;37850;53.178;6.376;2023-03-31T03:35:23;19.95;;;3.50;;
51792;SDS011;37850;53.178;6.376;2023-03-31T03:37:49;22.13;;;3.83;;
51792;SDS011;37850;53.178;6.376;2023-03-31T03:40:15;19.20;;;3.50;;
51792;SDS011;37850;53.178;6.376;2023-03-31T03:42:41;19.38;;;4.05;;
51792;SDS011;37850;53.178;6.376;2023-03-31T03:45:06;24.60;;;3.38;;
51792;SDS011;37850;53.178;6.376;2023-03-31T03:47:33;24.73;;;3.47;;
51792;SDS011;37850;53.178;6.376;2023-03-31T03:50:00;25.42;;;3.70;;
51792;SDS011;37850;53.178;6.376;2023-03-31T03:52:26;19.90;;;3.53;;
51792;SDS011;37850;53.178;6.376;2023-03-31T03:54:52;17.55;;;3.55;;
51792;SDS011;37850;53.178;6.376;2023-03-31T03:57:18;19.98;;;3.03;;
51792;SDS011;37850;53.178;6.376;2023-03-31T03:59:44;18.08;;;3.70;;
51792;SDS011;37850;53.178;6.376;2023-03-31T04:02:09;20.20;;;3.53;;
51792;SDS011;37850;53.178;6.376;2023-03-31T04:04:35;23.05;;;3.95;;
51792;SDS011;37850;53.178;6.376;2023-03-31T04:07:01;17.63;;;3.65;;
51792;SDS011;37850;53.178;6.376;2023-03-31T04:09:27;17.75;;;3.38;;
51792;SDS011;37850;53.178;6.376;2023-03-31T04:11:53;23.48;;;3.38;;
51792;SDS011;37850;53.178;6.376;2023-03-31T04:14:18;18.60;;;3.55;;
51792;SDS011;37850;53.178;6.376;2023-03-31T04:16:44;16.35;;;3.78;;
51792;SDS011;37850;53.178;6.376;2023-03-31T04:19:13;20.58;;;4.40;;
51792;SDS011;37850;53.178;6.376;2023-03-31T04:21:41;14.45;;;3.67;;
51792;SDS011;37850;53.178;6.376;2023-03-31T04:24:09;17.42;;;3.92;;
51792;SDS011;37850;53.178;6.376;2023-03-31T04:26:40;18.27;;;4.60;;
51792;SDS011;37850;53.178;6.376;2023-03-31T04:29:09;23.15;;;5.60;;
51792;SDS011;37850;53.178;6.376;2023-03-31T04:31:40;17.15;;;3.85;;
51792;SDS011;37850;53.178;6.376;2023-03-31T04:34:10;14.00;;;4.95;;
51792;SDS011;37850;53.178;6.376;2023-03-31T04:36:40;15.80;;;4.70;;
51792;SDS011;37850;53.178;6.376;2023-03-31T04:39:14;15.40;;;4.35;;
51792;SDS011;37850;53.178;6.376;2023-03-31T04:41:41;18.27;;;5.03;;
51792;SDS011;37850;53.178;6.376;2023-03-31T04:44:08;19.02;;;4.90;;
51792;SDS011;37850;53.178;6.376;2023-03-31T04:46:33;18.52;;;5.13;;
51792;SDS011;37850;53.178;6.376;2023-03-31T04:49:00;15.25;;;4.78;;
51792;SDS011;37850;53.178;6.376;2023-03-31T04:51:27;17.75;;;4.90;;
51792;SDS011;37850;53.178;6.376;2023-03-31T04:53:53;19.27;;;5.22;;
51792;SDS011;37850;53.178;6.376;2023-03-31T04:56:19;17.67;;;5.55;;
51792;SDS011;37850;53.178;6.376;2023-03-31T04:58:45;13.93;;;5.05;;
51792;SDS011;37850;53.178;6.376;2023-03-31T05:01:10;20.92;;;5.32;;
51792;SDS011;37850;53.178;6.376;2023-03-31T05:06:08;15.70;;;5.78;;
51792;SDS011;37850;53.178;6.376;2023-03-31T05:08:34;20.63;;;6.97;;
51792;SDS011;37850;53.178;6.376;2023-03-31T05:11:01;18.15;;;6.05;;
51792;SDS011;37850;53.178;6.376;2023-03-31T05:13:27;17.58;;;5.80;;
51792;SDS011;37850;53.178;6.376;2023-03-31T05:15:53;16.73;;;6.45;;
51792;SDS011;37850;53.178;6.376;2023-03-31T05:18:19;17.90;;;6.25;;
51792;SDS011;37850;53.178;6.376;2023-03-31T05:20:45;21.25;;;6.57;;
51792;SDS011;37850;53.178;6.376;2023-03-31T05:23:11;19.17;;;6.32;;
51792;SDS011;37850;53.178;6.376;2023-03-31T05:25:38;14.02;;;6.68;;
51792;SDS011;37850;53.178;6.376;2023-03-31T05:28:06;19.38;;;6.88;;
51792;SDS011;37850;53.178;6.376;2023-03-31T05:30:33;19.73;;;7.30;;
51792;SDS011;37850;53.178;6.376;2023-03-31T05:32:58;14.55;;;6.35;;
51792;SDS011;37850;53.178;6.376;2023-03-31T05:35:25;18.67;;;7.20;;
51792;SDS011;37850;53.178;6.376;2023-03-31T05:37:51;17.50;;;6.30;;
51792;SDS011;37850;53.178;6.376;2023-03-31T05:40:16;20.65;;;6.30;;
51792;SDS011;37850;53.178;6.376;2023-03-31T05:42:42;20.02;;;6.43;;
51792;SDS011;37850;53.178;6.376;2023-03-31T05:45:08;15.35;;;5.63;;
51792;SDS011;37850;53.178;6.376;2023-03-31T05:47:34;20.65;;;6.22;;
51792;SDS011;37850;53.178;6.376;2023-03-31T05:50:00;19.27;;;6.13;;
51792;SDS011;37850;53.178;6.376;2023-03-31T05:52:31;17.98;;;6.22;;
51792;SDS011;37850;53.178;6.376;2023-03-31T05:54:57;21.10;;;5.72;;
51792;SDS011;37850;53.178;6.376;2023-03-31T05:57:23;17.55;;;5.55;;
51792;SDS011;37850;53.178;6.376;2023-03-31T05:59:48;16.35;;;5.57;;
51792;SDS011;37850;53.178;6.376;2023-03-31T06:02:14;20.60;;;5.28;;
51792;SDS011;37850;53.178;6.376;2023-03-31T06:04:40;17.63;;;5.40;;
51792;SDS011;37850;53.178;6.376;2023-03-31T06:07:06;17.90;;;4.65;;
51792;SDS011;37850;53.178;6.376;2023-03-31T06:09:35;16.98;;;5.47;;
51792;SDS011;37850;53.178;6.376;2023-03-31T06:12:01;13.18;;;4.60;;
51792;SDS011;37850;53.178;6.376;2023-03-31T06:14:27;20.73;;;4.95;;
51792;SDS011;37850;53.178;6.376;2023-03-31T06:16:52;16.85;;;4.43;;
51792;SDS011;37850;53.178;6.376;2023-03-31T06:19:18;11.98;;;4.45;;
51792;SDS011;37850;53.178;6.376;2023-03-31T06:21:44;9.68;;;3.88;;
51792;SDS011;37850;53.178;6.376;2023-03-31T06:24:10;13.43;;;4.35;;
51792;SDS011;37850;53.178;6.376;2023-03-31T06:26:36;18.05;;;4.57;;
51792;SDS011;37850;53.178;6.376;2023-03-31T06:29:01;14.63;;;4.05;;
51792;SDS011;37850;53.178;6.376;2023-03-31T06:31:27;14.60;;;4.10;;
51792;SDS011;37850;53.178;6.376;2023-03-31T06:33:53;13.20;;;4.03;;
51792;SDS011;37850;53.178;6.376;2023-03-31T06:36:19;11.75;;;4.05;;
51792;SDS011;37850;53.178;6.376;2023-03-31T06:38:46;14.77;;;4.90;;
51792;SDS011;37850;53.178;6.376;2023-03-31T06:41:13;15.23;;;4.90;;
51792;SDS011;37850;53.178;6.376;2023-03-31T06:43:40;12.00;;;4.05;;
51792;SDS011;37850;53.178;6.376;2023-03-31T06:46:06;13.95;;;3.92;;
51792;SDS011;37850;53.178;6.376;2023-03-31T06:48:33;12.95;;;3.85;;
51792;SDS011;37850;53.178;6.376;2023-03-31T06:50:59;12.48;;;3.92;;
51792;SDS011;37850;53.178;6.376;2023-03-31T06:53:26;15.68;;;4.22;;
51792;SDS011;37850;53.178;6.376;2023-03-31T06:55:52;13.82;;;3.97;;
51792;SDS011;37850;53.178;6.376;2023-03-31T06:58:18;11.65;;;3.65;;
51792;SDS011;37850;53.178;6.376;2023-03-31T07:00:44;13.00;;;3.80;;
51792;SDS011;37850;53.178;6.376;2023-03-31T07:03:10;11.23;;;3.40;;
51792;SDS011;37850;53.178;6.376;2023-03-31T07:05:36;9.80;;;3.60;;
51792;SDS011;37850;53.178;6.376;2023-03-31T07:08:03;14.85;;;3.80;;
51792;SDS011;37850;53.178;6.376;2023-03-31T07:10:30;11.52;;;3.60;;
51792;SDS011;37850;53.178;6.376;2023-03-31T07:12:56;7.20;;;2.83;;
51792;SDS011;37850;53.178;6.376;2023-03-31T07:15:23;11.93;;;3.20;;
51792;SDS011;37850;53.178;6.376;2023-03-31T07:17:49;8.65;;;3.17;;
51792;SDS011;37850;53.178;6.376;2023-03-31T07:20:18;8.48;;;3.00;;
51792;SDS011;37850;53.178;6.376;2023-03-31T07:22:44;8.05;;;3.30;;
51792;SDS011;37850;53.178;6.376;2023-03-31T07:25:12;11.82;;;3.72;;
51792;SDS011;37850;53.178;6.376;2023-03-31T07:27:42;13.20;;;4.10;;
51792;SDS011;37850;53.178;6.376;2023-03-31T07:30:13;13.27;;;3.78;;
51792;SDS011;37850;53.178;6.376;2023-03-31T07:32:40;12.32;;;3.83;;
51792;SDS011;37850;53.178;6.376;2023-03-31T07:35:06;10.38;;;4.13;;
51792;SDS011;37850;53.178;6.376;2023-03-31T07:37:38;9.95;;;3.92;;
51792;SDS011;37850;53.178;6.376;2023-03-31T07:40:07;11.93;;;3.72;;
51792;SDS011;37850;53.178;6.376;2023-03-31T07:42:39;9.68;;;3.83;;
51792;SDS011;37850;53.178;6.376;2023-03-31T07:45:06;10.43;;;3.35;;
51792;SDS011;37850;53.178;6.376;2023-03-31T07:47:32;10.82;;;3.53;;
51792;SDS011;37850;53.178;6.376;2023-03-31T07:49:58;9.93;;;4.00;;
51792;SDS011;37850;53.178;6.376;2023-03-31T07:52:24;9.60;;;3.53;;
51792;SDS011;37850;53.178;6.376;2023-03-31T07:54:50;10.07;;;3.60;;
51792;SDS011;37850;53.178;6.376;2023-03-31T07:57:16;6.85;;;3.10;;
51792;SDS011;37850;53.178;6.376;2023-03-31T07:59:44;9.07;;;2.97;;
51792;SDS011;37850;53.178;6.376;2023-03-31T08:02:11;10.82;;;3.60;;
51792;SDS011;37850;53.178;6.376;2023-03-31T08:04:38;10.27;;;3.10;;
51792;SDS011;37850;53.178;6.376;2023-03-31T08:07:06;9.65;;;2.80;;
51792;SDS011;37850;53.178;6.376;2023-03-31T08:09:36;13.35;;;3.08;;
51792;SDS011;37850;53.178;6.376;2023-03-31T08:12:02;9.13;;;2.38;;
51792;SDS011;37850;53.178;6.376;2023-03-31T08:14:29;10.07;;;3.40;;
51792;SDS011;37850;53.178;6.376;2023-03-31T08:16:56;8.73;;;2.90;;
51792;SDS011;37850;53.178;6.376;2023-03-31T08:19:22;9.27;;;2.90;;
51792;SDS011;37850;53.178;6.376;2023-03-31T08:21:48;9.98;;;3.08;;
51792;SDS011;37850;53.178;6.376;2023-03-31T08:24:16;9.38;;;2.95;;
51792;SDS011;37850;53.178;6.376;2023-03-31T08:26:42;8.43;;;3.25;;
51792;SDS011;37850;53.178;6.376;2023-03-31T08:29:08;6.65;;;2.78;;
51792;SDS011;37850;53.178;6.376;2023-03-31T08:31:34;10.95;;;3.40;;
51792;SDS011;37850;53.178;6.376;2023-03-31T08:34:00;10.63;;;3.03;;
51792;SDS011;37850;53.178;6.376;2023-03-31T08:36:27;9.93;;;3.13;;
51792;SDS011;37850;53.178;6.376;2023-03-31T08:38:53;11.95;;;3.25;;
51792;SDS011;37850;53.178;6.376;2023-03-31T08:47:01;10.85;;;3.20;;
51792;SDS011;37850;53.178;6.376;2023-03-31T08:49:30;9.65;;;2.85;;
51792;SDS011;37850;53.178;6.376;2023-03-31T08:52:04;7.72;;;2.60;;
51792;SDS011;37850;53.178;6.376;2023-03-31T08:54:36;12.95;;;3.47;;
51792;SDS011;37850;53.178;6.376;2023-03-31T08:57:10;13.52;;;3.42;;
51792;SDS011;37850;53.178;6.376;2023-03-31T08:59:43;10.73;;;2.97;;
51792;SDS011;37850;53.178;6.376;2023-03-31T09:02:30;9.20;;;3.00;;
51792;SDS011;37850;53.178;6.376;2023-03-31T09:05:13;12.88;;;3.28;;
51792;SDS011;37850;53.178;6.376;2023-03-31T09:10:50;11.88;;;3.15;;
51792;SDS011;37850;53.178;6.376;2023-03-31T09:13:39;13.65;;;3.38;;
51792;SDS011;37850;53.178;6.376;2023-03-31T09:16:19;11.65;;;3.30;;
51792;SDS011;37850;53.178;6.376;2023-03-31T09:18:59;8.10;;;3.05;;
51792;SDS011;37850;53.178;6.376;2023-03-31T09:23:58;11.95;;;3.30;;
51792;SDS011;37850;53.178;6.376;2023-03-31T09:29:18;14.27;;;3.70;;
51792;SDS011;37850;53.178;6.376;2023-03-31T09:31:54;15.32;;;3.60;;
51792;SDS011;37850;53.178;6.376;2023-03-31T09:34:27;12.95;;;3.45;;
51792;SDS011;37850;53.178;6.376;2023-03-31T09:36:55;14.77;;;4.32;;
51792;SDS011;37850;53.178;6.376;2023-03-31T09:39:21;11.25;;;3.72;;
51792;SDS011;37850;53.178;6.376;2023-03-31T09:41:48;13.75;;;4.13;;
51792;SDS011;37850;53.178;6.376;2023-03-31T09:45:01;10.90;;;3.65;;
51792;SDS011;37850;53.178;6.376;2023-03-31T09:47:04;10.48;;;3.97;;
51792;SDS011;37850;53.178;6.376;2023-03-31T09:49:35;15.10;;;4.15;;
51792;SDS011;37850;53.178;6.376;2023-03-31T09:52:03;12.88;;;4.35;;
51792;SDS011;37850;53.178;6.376;2023-03-31T09:54:49;9.63;;;3.72;;
51792;SDS011;37850;53.178;6.376;2023-03-31T09:57:23;11.18;;;4.10;;
51792;SDS011;37850;53.178;6.376;2023-03-31T09:59:52;10.90;;;3.70;;
51792;SDS011;37850;53.178;6.376;2023-03-31T10:05:03;14.65;;;3.35;;
51792;SDS011;37850;53.178;6.376;2023-03-31T10:07:29;10.38;;;3.50;;
51792;SDS011;37850;53.178;6.376;2023-03-31T10:09:56;10.40;;;3.35;;
51792;SDS011;37850;53.178;6.376;2023-03-31T10:12:24;10.88;;;3.58;;
51792;SDS011;37850;53.178;6.376;2023-03-31T10:14:53;9.55;;;2.92;;
51792;SDS011;37850;53.178;6.376;2023-03-31T10:17:26;8.07;;;2.35;;
51792;SDS011;37850;53.178;6.376;2023-03-31T10:19:59;7.75;;;3.00;;
51792;SDS011;37850;53.178;6.376;2023-03-31T10:22:44;9.52;;;2.50;;
51792;SDS011;37850;53.178;6.376;2023-03-31T10:25:20;7.05;;;2.63;;
51792;SDS011;37850;53.178;6.376;2023-03-31T10:27:51;8.25;;;2.85;;
51792;SDS011;37850;53.178;6.376;2023-03-31T10:30:27;8.43;;;3.45;;
51792;SDS011;37850;53.178;6.376;2023-03-31T10:32:59;8.35;;;3.15;;
51792;SDS011;37850;53.178;6.376;2023-03-31T10:35:31;11.05;;;3.20;;
51792;SDS011;37850;53.178;6.376;2023-03-31T10:38:00;10.48;;;3.13;;
51792;SDS011;37850;53.178;6.376;2023-03-31T10:40:39;8.50;;;3.10;;
51792;SDS011;37850;53.178;6.376;2023-03-31T10:43:15;9.73;;;2.80;;
51792;SDS011;37850;53.178;6.376;2023-03-31T10:51:04;10.70;;;3.40;;
51792;SDS011;37850;53.178;6.376;2023-03-31T10:53:40;11.93;;;3.17;;
51792;SDS011;37850;53.178;6.376;2023-03-31T10:56:32;9.05;;;3.08;;
51792;SDS011;37850;53.178;6.376;2023-03-31T10:59:33;11.70;;;3.55;;
51792;SDS011;37850;53.178;6.376;2023-03-31T11:02:41;11.53;;;3.50;;
51792;SDS011;37850;53.178;6.376;2023-03-31T11:15:32;9.88;;;3.33;;
51792;SDS011;37850;53.178;6.376;2023-03-31T11:35:44;10.23;;;2.90;;
51792;SDS011;37850;53.178;6.376;2023-03-31T11:38:29;9.30;;;2.72;;
51792;SDS011;37850;53.178;6.376;2023-03-31T11:41:19;10.02;;;2.60;;
51792;SDS011;37850;53.178;6.376;2023-03-31T11:43:49;8.13;;;2.58;;
51792;SDS011;37850;53.178;6.376;2023-03-31T11:46:24;12.73;;;2.83;;
51792;SDS011;37850;53.178;6.376;2023-03-31T11:49:04;9.18;;;2.33;;
51792;SDS011;37850;53.178;6.376;2023-03-31T11:51:55;11.38;;;2.90;;
51792;SDS011;37850;53.178;6.376;2023-03-31T11:54:24;11.07;;;2.50;;
51792;SDS011;37850;53.178;6.376;2023-03-31T11:56:55;13.35;;;3.17;;
51792;SDS011;37850;53.178;6.376;2023-03-31T11:59:22;11.15;;;2.58;;
51792;SDS011;37850;53.178;6.376;2023-03-31T12:04:44;10.93;;;2.42;;
51792;SDS011;37850;53.178;6.376;2023-03-31T12:07:23;11.40;;;2.38;;
51792;SDS011;37850;53.178;6.376;2023-03-31T12:10:20;10.32;;;2.90;;
51792;SDS011;37850;53.178;6.376;2023-03-31T12:19:01;10.95;;;2.42;;
51792;SDS011;37850;53.178;6.376;2023-03-31T12:21:29;10.30;;;3.42;;
51792;SDS011;37850;53.178;6.376;2023-03-31T12:23:56;9.48;;;2.67;;
51792;SDS011;37850;53.178;6.376;2023-03-31T12:26:26;9.13;;;2.90;;
51792;SDS011;37850;53.178;6.376;2023-03-31T12:29:33;10.82;;;2.85;;
51792;SDS011;37850;53.178;6.376;2023-03-31T12:32:25;10.18;;;2.75;;
51792;SDS011;37850;53.178;6.376;2023-03-31T12:34:58;12.07;;;3.07;;
51792;SDS011;37850;53.178;6.376;2023-03-31T12:37:37;12.50;;;2.88;;
51792;SDS011;37850;53.178;6.376;2023-03-31T12:48:47;13.70;;;2.80;;
51792;SDS011;37850;53.178;6.376;2023-03-31T12:51:23;12.43;;;2.72;;
51792;SDS011;37850;53.178;6.376;2023-03-31T12:59:33;14.07;;;3.38;;
51792;SDS011;37850;53.178;6.376;2023-03-31T13:04:36;11.88;;;3.15;;
51792;SDS011;37850;53.178;6.376;2023-03-31T13:07:03;12.10;;;3.40;;
51792;SDS011;37850;53.178;6.376;2023-03-31T13:09:43;11.57;;;2.70;;
51792;SDS011;37850;53.178;6.376;2023-03-31T13:12:15;12.43;;;2.92;;
51792;SDS011;37850;53.178;6.376;2023-03-31T13:14:52;13.05;;;3.47;;
51792;SDS011;37850;53.178;6.376;2023-03-31T13:19:52;12.75;;;3.03;;
51792;SDS011;37850;53.178;6.376;2023-03-31T13:22:29;10.70;;;3.05;;
51792;SDS011;37850;53.178;6.376;2023-03-31T13:33:58;14.63;;;2.65;;
51792;SDS011;37850;53.178;6.376;2023-03-31T13:45:06;12.90;;;2.85;;
51792;SDS011;37850;53.178;6.376;2023-03-31T13:52:56;6.55;;;1.17;;
51792;SDS011;37850;53.178;6.376;2023-03-31T14:06:11;7.05;;;1.08;;
51792;SDS011;37850;53.178;6.376;2023-03-31T14:14:11;7.15;;;1.40;;
51792;SDS011;37850;53.178;6.376;2023-03-31T14:16:40;4.47;;;1.13;;
51792;SDS011;37850;53.178;6.376;2023-03-31T14:19:28;9.05;;;1.40;;
51792;SDS011;37850;53.178;6.376;2023-03-31T14:25:45;7.45;;;1.60;;
51792;SDS011;37850;53.178;6.376;2023-03-31T14:31:36;9.57;;;2.25;;
51792;SDS011;37850;53.178;6.376;2023-03-31T14:37:01;7.38;;;1.38;;
51792;SDS011;37850;53.178;6.376;2023-03-31T14:39:34;10.23;;;1.70;;
51792;SDS011;37850;53.178;6.376;2023-03-31T14:42:03;11.93;;;1.83;;
51792;SDS011;37850;53.178;6.376;2023-03-31T14:44:35;6.75;;;1.40;;
51792;SDS011;37850;53.178;6.376;2023-03-31T14:47:13;7.97;;;1.55;;
51792;SDS011;37850;53.178;6.376;2023-03-31T14:49:40;7.15;;;1.50;;
51792;SDS011;37850;53.178;6.376;2023-03-31T14:52:14;7.18;;;1.58;;
51792;SDS011;37850;53.178;6.376;2023-03-31T14:54:40;8.07;;;1.80;;
51792;SDS011;37850;53.178;6.376;2023-03-31T14:57:08;5.80;;;1.48;;
51792;SDS011;37850;53.178;6.376;2023-03-31T14:59:37;8.57;;;1.42;;
51792;SDS011;37850;53.178;6.376;2023-03-31T15:02:03;12.13;;;1.70;;
51792;SDS011;37850;53.178;6.376;2023-03-31T15:04:30;7.72;;;1.48;;
51792;SDS011;37850;53.178;6.376;2023-03-31T15:07:09;9.30;;;1.42;;
51792;SDS011;37850;53.178;6.376;2023-03-31T15:09:36;8.93;;;1.60;;
51792;SDS011;37850;53.178;6.376;2023-03-31T15:12:03;9.25;;;1.50;;
51792;SDS011;37850;53.178;6.376;2023-03-31T15:14:34;6.82;;;1.35;;
51792;SDS011;37850;53.178;6.376;2023-03-31T15:17:14;6.90;;;1.35;;
51792;SDS011;37850;53.178;6.376;2023-03-31T15:19:42;9.15;;;1.60;;
51792;SDS011;37850;53.178;6.376;2023-03-31T15:22:12;3.97;;;1.33;;
51792;SDS011;37850;53.178;6.376;2023-03-31T15:24:43;5.43;;;1.15;;
51792;SDS011;37850;53.178;6.376;2023-03-31T15:27:29;5.38;;;1.02;;
51792;SDS011;37850;53.178;6.376;2023-03-31T15:30:00;5.32;;;1.15;;
51792;SDS011;37850;53.178;6.376;2023-03-31T15:32:28;4.40;;;1.00;;
51792;SDS011;37850;53.178;6.376;2023-03-31T15:34:56;8.15;;;1.60;;
51792;SDS011;37850;53.178;6.376;2023-03-31T15:37:24;6.40;;;1.30;;
51792;SDS011;37850;53.178;6.376;2023-03-31T15:39:57;6.35;;;1.35;;
51792;SDS011;37850;53.178;6.376;2023-03-31T15:42:24;6.20;;;1.20;;
51792;SDS011;37850;53.178;6.376;2023-03-31T15:44:55;8.65;;;1.40;;
51792;SDS011;37850;53.178;6.376;2023-03-31T15:48:16;7.22;;;1.70;;
51792;SDS011;37850;53.178;6.376;2023-03-31T15:50:39;5.30;;;1.23;;
51792;SDS011;37850;53.178;6.376;2023-03-31T15:53:18;6.47;;;1.30;;
51792;SDS011;37850;53.178;6.376;2023-03-31T15:55:55;5.22;;;1.27;;
51792;SDS011;37850;53.178;6.376;2023-03-31T15:58:45;9.02;;;1.50;;
51792;SDS011;37850;53.178;6.376;2023-03-31T16:01:17;7.07;;;1.25;;
51792;SDS011;37850;53.178;6.376;2023-03-31T16:03:43;8.68;;;1.80;;
51792;SDS011;37850;53.178;6.376;2023-03-31T16:09:01;8.98;;;1.55;;
51792;SDS011;37850;53.178;6.376;2023-03-31T16:14:21;9.52;;;2.20;;
51792;SDS011;37850;53.178;6.376;2023-03-31T16:16:56;8.25;;;1.63;;
51792;SDS011;37850;53.178;6.376;2023-03-31T16:19:26;11.57;;;2.03;;
51792;SDS011;37850;53.178;6.376;2023-03-31T16:21:55;11.30;;;1.73;;
51792;SDS011;37850;53.178;6.376;2023-03-31T16:27:02;6.78;;;1.90;;
51792;SDS011;37850;53.178;6.376;2023-03-31T16:29:31;8.32;;;1.80;;
51792;SDS011;37850;53.178;6.376;2023-03-31T16:32:15;8.45;;;1.70;;
51792;SDS011;37850;53.178;6.376;2023-03-31T16:34:56;8.25;;;1.90;;
51792;SDS011;37850;53.178;6.376;2023-03-31T16:37:23;9.43;;;2.03;;
51792;SDS011;37850;53.178;6.376;2023-03-31T16:39:49;11.20;;;1.80;;
51792;SDS011;37850;53.178;6.376;2023-03-31T16:42:16;9.13;;;2.30;;
51792;SDS011;37850;53.178;6.376;2023-03-31T16:44:42;8.80;;;1.73;;
51792;SDS011;37850;53.178;6.376;2023-03-31T16:47:10;8.27;;;1.63;;
51792;SDS011;37850;53.178;6.376;2023-03-31T16:49:36;8.15;;;1.65;;
51792;SDS011;37850;53.178;6.376;2023-03-31T16:52:02;8.05;;;2.17;;
51792;SDS011;37850;53.178;6.376;2023-03-31T16:54:29;11.48;;;2.05;;
51792;SDS011;37850;53.178;6.376;2023-03-31T16:56:55;9.27;;;2.42;;
51792;SDS011;37850;53.178;6.376;2023-03-31T16:59:22;11.98;;;1.90;;
51792;SDS011;37850;53.178;6.376;2023-03-31T17:01:49;13.18;;;2.10;;
51792;SDS011;37850;53.178;6.376;2023-03-31T17:04:15;11.27;;;1.90;;
51792;SDS011;37850;53.178;6.376;2023-03-31T17:06:42;10.68;;;1.77;;
51792;SDS011;37850;53.178;6.376;2023-03-31T17:09:08;8.70;;;1.65;;
51792;SDS011;37850;53.178;6.376;2023-03-31T17:11:34;11.50;;;2.28;;
51792;SDS011;37850;53.178;6.376;2023-03-31T17:14:00;10.15;;;2.38;;
51792;SDS011;37850;53.178;6.376;2023-03-31T17:16:26;8.77;;;2.35;;
51792;SDS011;37850;53.178;6.376;2023-03-31T17:18:52;13.13;;;2.47;;
51792;SDS011;37850;53.178;6.376;2023-03-31T17:21:18;10.68;;;2.30;;
51792;SDS011;37850;53.178;6.376;2023-03-31T17:23:44;10.25;;;1.90;;
51792;SDS011;37850;53.178;6.376;2023-03-31T17:26:11;9.57;;;2.20;;
51792;SDS011;37850;53.178;6.376;2023-03-31T17:28:37;9.77;;;2.22;;
51792;SDS011;37850;53.178;6.376;2023-03-31T17:31:11;9.93;;;2.42;;
51792;SDS011;37850;53.178;6.376;2023-03-31T17:33:39;11.98;;;2.47;;
51792;SDS011;37850;53.178;6.376;2023-03-31T17:36:06;10.05;;;2.53;;
51792;SDS011;37850;53.178;6.376;2023-03-31T17:38:32;9.75;;;2.72;;
51792;SDS011;37850;53.178;6.376;2023-03-31T17:41:05;13.07;;;2.90;;
51792;SDS011;37850;53.178;6.376;2023-03-31T17:43:32;10.60;;;2.55;;
51792;SDS011;37850;53.178;6.376;2023-03-31T17:46:02;13.05;;;2.58;;
51792;SDS011;37850;53.178;6.376;2023-03-31T17:48:34;9.48;;;2.35;;
51792;SDS011;37850;53.178;6.376;2023-03-31T17:51:08;7.25;;;2.33;;
51792;SDS011;37850;53.178;6.376;2023-03-31T17:53:37;7.53;;;2.08;;
51792;SDS011;37850;53.178;6.376;2023-03-31T17:56:04;10.90;;;2.47;;
51792;SDS011;37850;53.178;6.376;2023-03-31T17:58:30;10.65;;;2.15;;
51792;SDS011;37850;53.178;6.376;2023-03-31T18:00:57;10.50;;;2.20;;
51792;SDS011;37850;53.178;6.376;2023-03-31T18:03:23;9.00;;;2.00;;
51792;SDS011;37850;53.178;6.376;2023-03-31T18:05:52;11.32;;;2.30;;
51792;SDS011;37850;53.178;6.376;2023-03-31T18:08:17;8.57;;;2.03;;